createdAt,value
2018-05-17T00:00:16.147Z,13.40
2018-05-17T00:02:42.161Z,13.60
2018-05-17T00:05:08.183Z,13.30
2018-05-17T00:07:34.188Z,13.30
2018-05-17T00:10:00.197Z,13.20
2018-05-17T00:12:26.209Z,13.30
2018-05-17T00:14:52.209Z,13.10
2018-05-17T00:17:18.225Z,13.20
2018-05-17T00:19:44.229Z,13.10
2018-05-17T00:22:10.240Z,13.10
2018-05-17T00:24:36.237Z,12.90
2018-05-17T00:27:02.235Z,12.70
2018-05-17T00:29:28.965Z,13.00
2018-05-17T00:31:55.004Z,13.00
2018-05-17T00:34:21.821Z,12.60
2018-05-17T00:36:47.805Z,12.60
2018-05-17T00:39:13.809Z,12.70
2018-05-17T00:41:39.797Z,12.80
2018-05-17T00:44:05.802Z,12.80
2018-05-17T00:46:31.835Z,12.80
2018-05-17T00:48:57.815Z,12.70
2018-05-17T00:51:23.813Z,12.60
2018-05-17T00:53:50.544Z,12.70
2018-05-17T00:56:17.287Z,12.80
2018-05-17T00:58:43.273Z,12.80
2018-05-17T01:01:09.265Z,12.80
2018-05-17T01:03:35.252Z,12.70
2018-05-17T01:06:01.977Z,12.80
2018-05-17T01:08:28.717Z,12.40
2018-05-17T01:10:54.728Z,12.40
2018-05-17T01:13:20.782Z,12.40
2018-05-17T01:15:47.524Z,12.60
2018-05-17T01:18:13.564Z,12.50
2018-05-17T01:20:39.618Z,12.60
2018-05-17T01:23:05.632Z,12.30
2018-05-17T01:25:31.630Z,12.40
2018-05-17T01:27:57.657Z,12.40
2018-05-17T01:30:23.656Z,12.60
2018-05-17T01:32:50.383Z,12.40
2018-05-17T01:35:16.385Z,12.40
2018-05-17T01:37:48.597Z,12.40
2018-05-17T01:40:14.636Z,12.40
2018-05-17T01:42:40.641Z,12.30
2018-05-17T01:45:07.386Z,12.40
2018-05-17T01:47:33.426Z,12.40
2018-05-17T01:49:59.422Z,12.30
2018-05-17T01:52:26.151Z,12.30
2018-05-17T01:54:52.893Z,12.20
2018-05-17T01:57:18.869Z,12.20
2018-05-17T01:59:44.869Z,12.00
2018-05-17T02:02:10.886Z,12.10
2018-05-17T02:04:37.620Z,12.10
2018-05-17T02:07:03.606Z,12.10
2018-05-17T02:09:29.645Z,12.00
2018-05-17T02:11:56.404Z,12.00
2018-05-17T02:14:22.393Z,11.90
2018-05-17T02:16:48.381Z,12.00
2018-05-17T02:19:14.458Z,12.00
2018-05-17T02:21:40.437Z,11.70
2018-05-17T02:24:06.451Z,11.80
2018-05-17T02:26:32.450Z,11.90
2018-05-17T02:28:58.446Z,12.10
2018-05-17T02:31:25.225Z,12.00
2018-05-17T02:33:51.225Z,11.90
2018-05-17T02:36:17.970Z,12.00
2018-05-17T02:38:43.965Z,12.10
2018-05-17T02:41:09.990Z,12.10
2018-05-17T02:43:35.976Z,12.00
2018-05-17T02:46:01.977Z,12.00
2018-05-17T02:48:34.949Z,12.10
2018-05-17T02:51:01.693Z,12.00
2018-05-17T02:53:27.689Z,12.00
2018-05-17T02:55:53.697Z,12.00
2018-05-17T02:58:19.714Z,11.90
2018-05-17T03:00:45.756Z,11.90
2018-05-17T03:03:11.738Z,11.70
2018-05-17T03:05:38.527Z,11.70
2018-05-17T03:08:05.286Z,11.60
2018-05-17T03:10:31.290Z,11.60
2018-05-17T03:12:57.298Z,11.80
2018-05-17T03:15:23.557Z,11.60
2018-05-17T03:17:49.593Z,11.60
2018-05-17T03:20:15.613Z,11.60
2018-05-17T03:22:41.602Z,11.80
2018-05-17T03:25:07.593Z,11.60
2018-05-17T03:27:33.577Z,11.60
2018-05-17T03:29:59.573Z,11.60
2018-05-17T03:32:25.571Z,11.60
2018-05-17T03:34:51.554Z,11.60
2018-05-17T03:37:17.538Z,11.50
2018-05-17T03:39:43.584Z,11.40
2018-05-17T03:42:09.621Z,11.30
2018-05-17T03:44:35.632Z,11.50
2018-05-17T03:47:02.367Z,11.80
2018-05-17T03:49:29.114Z,11.80
2018-05-17T03:51:55.851Z,11.60
2018-05-17T03:54:22.580Z,11.70
2018-05-17T03:56:49.321Z,11.80
2018-05-17T03:59:16.048Z,11.70
2018-05-17T04:01:48.177Z,11.70
2018-05-17T04:04:20.209Z,11.70
2018-05-17T04:06:46.210Z,11.60
2018-05-17T04:09:12.338Z,11.70
2018-05-17T04:11:39.097Z,12.00
2018-05-17T04:14:05.837Z,12.00
2018-05-17T04:16:31.881Z,12.00
2018-05-17T04:18:57.880Z,12.10
2018-05-17T04:21:24.638Z,12.10
2018-05-17T04:23:50.625Z,12.10
2018-05-17T04:26:16.629Z,12.00
2018-05-17T04:28:42.650Z,12.10
2018-05-17T04:31:08.709Z,12.10
2018-05-17T04:33:35.437Z,12.40
2018-05-17T04:36:01.477Z,12.30
2018-05-17T04:38:28.205Z,12.40
2018-05-17T04:40:54.965Z,12.30
2018-05-17T04:43:20.998Z,12.30
2018-05-17T04:45:47.729Z,12.20
2018-05-17T04:48:13.729Z,12.20
2018-05-17T04:50:39.725Z,12.40
2018-05-17T04:53:05.745Z,12.50
2018-05-17T04:55:31.731Z,12.20
2018-05-17T04:57:57.737Z,12.30
2018-05-17T05:00:23.725Z,12.30
2018-05-17T05:02:49.760Z,12.10
2018-05-17T05:05:15.741Z,12.20
2018-05-17T05:07:41.750Z,12.00
2018-05-17T05:10:07.758Z,12.20
2018-05-17T05:12:33.769Z,12.50
2018-05-17T05:15:00.546Z,12.60
2018-05-17T05:17:26.640Z,12.60
2018-05-17T05:19:52.642Z,12.60
2018-05-17T05:22:18.662Z,12.50
2018-05-17T05:24:44.666Z,12.60
2018-05-17T05:27:10.671Z,12.80
2018-05-17T05:29:36.925Z,12.80
2018-05-17T05:32:02.986Z,12.90
2018-05-17T05:34:29.722Z,12.90
2018-05-17T05:36:56.475Z,13.00
2018-05-17T05:39:22.485Z,13.00
2018-05-17T05:41:49.250Z,12.90
2018-05-17T05:44:15.261Z,12.80
2018-05-17T05:46:41.261Z,13.00
2018-05-17T05:49:08.018Z,13.20
2018-05-17T05:51:34.050Z,13.10
2018-05-17T05:54:00.075Z,13.30
2018-05-17T05:56:26.134Z,12.90
2018-05-17T05:58:52.129Z,12.80
2018-05-17T06:01:18.166Z,12.90
2018-05-17T06:03:44.162Z,12.70
2018-05-17T06:06:10.142Z,12.80
2018-05-17T06:08:36.125Z,12.90
2018-05-17T06:11:02.850Z,13.00
2018-05-17T06:13:28.869Z,13.00
2018-05-17T06:15:55.618Z,13.00
2018-05-17T06:18:22.353Z,13.00
2018-05-17T06:20:48.377Z,13.00
2018-05-17T06:23:14.393Z,12.90
2018-05-17T06:25:41.117Z,12.90
2018-05-17T06:28:07.112Z,12.90
2018-05-17T06:30:33.118Z,12.80
2018-05-17T06:32:59.117Z,13.00
2018-05-17T06:35:25.110Z,13.00
2018-05-17T06:37:51.117Z,12.90
2018-05-17T06:40:17.110Z,12.90
2018-05-17T06:42:43.249Z,12.90
2018-05-17T06:45:09.263Z,13.00
2018-05-17T06:47:35.359Z,13.00
2018-05-17T06:50:01.353Z,13.10
2018-05-17T06:52:28.097Z,13.00
2018-05-17T06:54:54.217Z,13.00
2018-05-17T06:57:20.977Z,13.00
2018-05-17T06:59:47.710Z,13.10
2018-05-17T07:02:14.442Z,13.30
2018-05-17T07:04:40.504Z,13.30
2018-05-17T07:07:06.508Z,13.40
2018-05-17T07:09:32.510Z,13.50
2018-05-17T07:11:59.792Z,13.50
2018-05-17T07:14:25.789Z,13.50
2018-05-17T07:16:51.824Z,13.60
2018-05-17T07:19:18.569Z,13.50
2018-05-17T07:21:44.566Z,13.40
2018-05-17T07:24:10.602Z,13.40
2018-05-17T07:26:36.598Z,13.50
2018-05-17T07:29:02.598Z,13.60
2018-05-17T07:31:28.684Z,13.70
2018-05-17T07:33:54.700Z,13.70
2018-05-17T07:36:20.601Z,13.70
2018-05-17T07:38:46.629Z,13.70
2018-05-17T07:41:12.672Z,14.00
2018-05-17T07:43:39.421Z,14.00
2018-05-17T07:46:05.443Z,13.90
2018-05-17T07:48:31.445Z,13.80
2018-05-17T07:50:58.186Z,13.90
2018-05-17T07:53:24.201Z,14.00
2018-05-17T07:55:50.225Z,13.90
2018-05-17T07:58:16.253Z,13.90
2018-05-17T08:00:42.253Z,14.10
2018-05-17T08:03:08.294Z,14.30
2018-05-17T08:05:34.300Z,14.60
2018-05-17T08:08:00.306Z,14.50
2018-05-17T08:10:27.093Z,14.50
2018-05-17T08:12:53.125Z,14.50
2018-05-17T08:15:19.864Z,14.70
2018-05-17T08:17:46.602Z,14.80
2018-05-17T08:20:13.333Z,14.80
2018-05-17T08:22:39.343Z,14.80
2018-05-17T08:25:06.794Z,14.80
2018-05-17T08:27:32.941Z,14.80
2018-05-17T08:29:58.925Z,14.80
2018-05-17T08:32:24.905Z,14.70
2018-05-17T08:34:51.649Z,14.80
2018-05-17T08:37:18.390Z,15.00
2018-05-17T08:39:44.412Z,15.10
2018-05-17T08:42:11.149Z,15.30
2018-05-17T08:44:37.157Z,15.30
2018-05-17T08:47:03.157Z,15.20
2018-05-17T08:49:29.247Z,14.80
2018-05-17T08:51:55.165Z,14.90
2018-05-17T08:54:21.178Z,14.90
2018-05-17T08:56:47.185Z,15.00
2018-05-17T08:59:13.207Z,15.40
2018-05-17T09:01:39.934Z,15.20
2018-05-17T09:04:05.961Z,15.20
2018-05-17T09:06:32.691Z,15.00
2018-05-17T09:08:58.693Z,15.00
2018-05-17T09:11:24.677Z,15.20
2018-05-17T09:13:50.731Z,15.10
2018-05-17T09:16:16.677Z,15.10
2018-05-17T09:18:44.452Z,15.10
2018-05-17T09:21:11.004Z,15.10
2018-05-17T09:23:37.353Z,15.30
2018-05-17T09:26:03.388Z,15.10
2018-05-17T09:28:29.393Z,15.00
2018-05-17T09:30:55.381Z,15.10
2018-05-17T09:33:21.436Z,15.20
2018-05-17T09:35:47.527Z,15.20
2018-05-17T09:38:14.202Z,15.30
2018-05-17T09:40:40.204Z,15.30
2018-05-17T09:43:06.945Z,15.40
2018-05-17T09:45:33.739Z,15.30
2018-05-17T09:47:59.743Z,15.20
2018-05-17T09:50:26.449Z,15.70
2018-05-17T09:52:52.517Z,15.70
2018-05-17T09:55:18.532Z,15.80
2018-05-17T09:57:44.517Z,15.50
2018-05-17T10:00:17.513Z,15.70
2018-05-17T10:02:44.261Z,15.80
2018-05-17T10:05:10.998Z,15.80
2018-05-17T10:07:36.962Z,15.70
2018-05-17T10:10:02.945Z,15.80
2018-05-17T10:12:29.726Z,15.80
2018-05-17T10:14:55.733Z,15.80
2018-05-17T10:17:21.733Z,15.80
2018-05-17T10:19:48.497Z,16.50
2018-05-17T10:22:14.493Z,16.50
2018-05-17T10:24:41.238Z,16.60
2018-05-17T10:27:07.986Z,16.40
2018-05-17T10:29:34.094Z,16.30
2018-05-17T10:32:00.025Z,16.70
2018-05-17T10:34:26.765Z,17.00
2018-05-17T10:36:53.486Z,17.20
2018-05-17T10:39:19.563Z,17.10
2018-05-17T10:41:45.548Z,17.40
2018-05-17T10:44:11.572Z,17.40
2018-05-17T10:46:38.297Z,17.80
2018-05-17T10:49:05.085Z,17.80
2018-05-17T10:51:31.054Z,17.70
2018-05-17T10:53:57.057Z,17.40
2018-05-17T10:56:23.046Z,17.80
2018-05-17T10:58:49.143Z,18.10
2018-05-17T11:01:15.893Z,17.90
2018-05-17T11:03:42.630Z,18.10
2018-05-17T11:06:09.369Z,18.40
2018-05-17T11:08:35.353Z,18.40
2018-05-17T11:11:01.349Z,18.30
2018-05-17T11:13:27.381Z,18.30
2018-05-17T11:15:53.370Z,18.20
2018-05-17T11:18:20.101Z,18.40
2018-05-17T11:20:46.829Z,18.80
2018-05-17T11:23:12.809Z,18.70
2018-05-17T11:25:38.817Z,18.80
2018-05-17T11:28:04.814Z,19.10
2018-05-17T11:30:31.555Z,18.80
2018-05-17T11:32:57.597Z,18.80
2018-05-17T11:35:23.602Z,19.00
2018-05-17T11:37:50.332Z,19.40
2018-05-17T11:40:17.065Z,19.80
2018-05-17T11:42:43.801Z,19.70
2018-05-17T11:45:10.577Z,19.50
2018-05-17T11:47:36.589Z,19.50
2018-05-17T11:50:03.655Z,19.60
2018-05-17T11:52:29.873Z,19.30
2018-05-17T11:54:56.088Z,19.80
2018-05-17T11:57:22.813Z,20.00
2018-05-17T11:59:49.548Z,20.30
2018-05-17T12:02:16.281Z,20.50
2018-05-17T12:04:43.061Z,19.90
2018-05-17T12:07:09.058Z,19.90
2018-05-17T12:09:35.813Z,20.60
2018-05-17T12:12:02.558Z,20.30
2018-05-17T12:14:28.557Z,20.30
2018-05-17T12:16:54.722Z,20.60
2018-05-17T12:19:20.854Z,21.30
2018-05-17T12:21:46.886Z,21.30
2018-05-17T12:24:12.933Z,21.10
2018-05-17T12:26:38.922Z,21.50
2018-05-17T12:29:04.905Z,21.50
2018-05-17T12:31:30.882Z,21.40
2018-05-17T12:33:56.873Z,21.30
2018-05-17T12:36:22.862Z,21.20
2018-05-17T12:38:48.833Z,21.70
2018-05-17T12:41:14.833Z,21.30
2018-05-17T12:43:41.557Z,22.00
2018-05-17T12:46:07.602Z,22.00
2018-05-17T12:48:34.325Z,22.30
2018-05-17T12:51:00.358Z,22.20
2018-05-17T12:53:27.574Z,22.30
2018-05-17T12:55:53.782Z,22.30
2018-05-17T12:58:20.012Z,22.50
2018-05-17T13:00:46.123Z,21.80
2018-05-17T13:03:12.113Z,22.10
2018-05-17T13:05:38.862Z,21.60
2018-05-17T13:08:04.844Z,21.60
2018-05-17T13:10:30.841Z,21.50
2018-05-17T13:12:56.893Z,22.00
2018-05-17T13:15:22.869Z,21.80
2018-05-17T13:17:48.849Z,21.80
2018-05-17T13:20:14.867Z,21.40
2018-05-17T13:22:40.882Z,20.80
2018-05-17T13:25:06.881Z,20.60
2018-05-17T13:27:32.875Z,21.20
2018-05-17T13:29:58.899Z,21.30
2018-05-17T13:32:25.617Z,22.30
2018-05-17T13:34:52.365Z,22.30
2018-05-17T13:37:19.194Z,21.50
2018-05-17T13:39:45.858Z,21.20
2018-05-17T13:42:12.609Z,21.40
2018-05-17T13:44:38.611Z,21.40
2018-05-17T13:47:05.341Z,20.40
2018-05-17T13:49:32.125Z,19.90
2018-05-17T13:51:58.120Z,19.90
2018-05-17T13:54:24.141Z,19.60
2018-05-17T13:56:50.124Z,19.30
2018-05-17T13:59:16.125Z,19.40
2018-05-17T14:01:42.124Z,19.70
2018-05-17T14:04:08.110Z,20.00
2018-05-17T14:06:34.187Z,19.60
2018-05-17T14:09:00.169Z,19.70
2018-05-17T14:11:26.199Z,19.80
2018-05-17T14:13:52.970Z,20.00
2018-05-17T14:16:18.986Z,20.00
2018-05-17T14:18:44.971Z,20.30
2018-05-17T14:21:10.977Z,20.20
2018-05-17T14:23:36.944Z,20.00
2018-05-17T14:26:02.950Z,20.30
2018-05-17T14:28:29.676Z,19.50
2018-05-17T14:30:55.677Z,19.50
2018-05-17T14:33:21.649Z,19.00
2018-05-17T14:35:48.421Z,19.10
2018-05-17T14:38:14.422Z,19.10
2018-05-17T14:40:40.431Z,19.50
2018-05-17T14:43:07.179Z,20.40
2018-05-17T14:45:33.157Z,20.40
2018-05-17T14:47:59.157Z,20.00
2018-05-17T14:50:25.154Z,19.40
2018-05-17T14:52:51.162Z,19.30
2018-05-17T14:55:18.625Z,19.20
2018-05-17T14:57:44.654Z,19.20
2018-05-17T15:00:17.622Z,18.90
2018-05-17T15:02:44.360Z,19.10
2018-05-17T15:05:10.321Z,19.00
2018-05-17T15:07:37.073Z,19.60
2018-05-17T15:10:03.045Z,19.60
2018-05-17T15:12:29.812Z,20.00
2018-05-17T15:14:56.581Z,20.30
2018-05-17T15:17:22.603Z,20.30
2018-05-17T15:19:48.574Z,20.50
2018-05-17T15:22:14.571Z,19.90
2018-05-17T15:24:40.615Z,19.10
2018-05-17T15:27:06.561Z,19.00
2018-05-17T15:29:33.421Z,19.40
2018-05-17T15:31:59.325Z,19.30
2018-05-17T15:34:25.329Z,19.00
2018-05-17T15:36:51.329Z,19.10
2018-05-17T15:39:17.979Z,19.60
2018-05-17T15:41:44.167Z,19.70
2018-05-17T15:44:10.093Z,19.20
2018-05-17T15:46:36.281Z,18.90
2018-05-17T15:49:03.005Z,18.50
2018-05-17T15:51:29.021Z,18.50
2018-05-17T15:53:55.005Z,18.50
2018-05-17T15:56:21.005Z,18.60
2018-05-17T15:58:46.997Z,18.40
2018-05-17T16:01:13.755Z,18.40
2018-05-17T16:03:40.482Z,18.50
2018-05-17T16:06:07.246Z,18.40
2018-05-17T16:08:33.357Z,18.30
2018-05-17T16:10:59.385Z,18.20
2018-05-17T16:13:26.157Z,18.00
2018-05-17T16:15:52.161Z,17.90
2018-05-17T16:18:18.206Z,17.90
2018-05-17T16:20:44.181Z,18.10
2018-05-17T16:23:10.177Z,17.50
2018-05-17T16:25:36.169Z,17.60
2018-05-17T16:28:02.197Z,17.50
2018-05-17T16:30:28.177Z,17.40
2018-05-17T16:32:54.945Z,17.20
2018-05-17T16:35:20.998Z,17.20
2018-05-17T16:37:46.998Z,17.40
2018-05-17T16:40:12.995Z,17.30
2018-05-17T16:42:39.806Z,17.50
2018-05-17T16:45:05.749Z,17.40
2018-05-17T16:47:31.772Z,17.60
2018-05-17T16:49:57.754Z,17.20
2018-05-17T16:52:23.770Z,17.40
2018-05-17T16:54:49.761Z,17.80
2018-05-17T16:57:15.856Z,18.10
2018-05-17T16:59:41.845Z,18.20
2018-05-17T17:02:07.828Z,18.50
2018-05-17T17:04:34.562Z,19.40
2018-05-17T17:07:01.297Z,19.50
2018-05-17T17:09:28.033Z,19.70
2018-05-17T17:11:54.041Z,19.70
2018-05-17T17:14:20.061Z,20.20
2018-05-17T17:16:46.061Z,20.40
2018-05-17T17:19:12.350Z,20.40
2018-05-17T17:21:39.186Z,20.10
2018-05-17T17:24:05.254Z,20.10
2018-05-17T17:26:31.253Z,20.10
2018-05-17T17:28:57.249Z,20.20
2018-05-17T17:31:23.249Z,20.50
2018-05-17T17:33:49.264Z,20.30
2018-05-17T17:36:15.264Z,20.30
2018-05-17T17:38:41.267Z,20.40
2018-05-17T17:41:07.981Z,19.90
2018-05-17T17:43:34.726Z,19.50
2018-05-17T17:46:00.759Z,19.50
2018-05-17T17:48:27.526Z,19.50
2018-05-17T17:50:53.525Z,19.50
2018-05-17T17:53:19.544Z,19.70
2018-05-17T17:55:46.285Z,19.30
2018-05-17T17:58:13.131Z,19.60
2018-05-17T18:00:39.869Z,19.40
2018-05-17T18:03:05.877Z,19.40
2018-05-17T18:05:31.945Z,19.50
2018-05-17T18:07:57.872Z,19.10
2018-05-17T18:10:24.276Z,19.00
2018-05-17T18:12:50.436Z,18.40
2018-05-17T18:15:16.440Z,18.50
2018-05-17T18:17:42.505Z,18.40
2018-05-17T18:20:08.494Z,18.00
2018-05-17T18:22:34.513Z,18.00
2018-05-17T18:25:00.542Z,18.10
2018-05-17T18:27:26.557Z,17.90
2018-05-17T18:29:52.653Z,17.40
2018-05-17T18:32:19.383Z,17.40
2018-05-17T18:34:45.401Z,17.40
2018-05-17T18:37:11.385Z,17.10
2018-05-17T18:39:37.382Z,17.10
2018-05-17T18:42:03.369Z,17.00
2018-05-17T18:44:29.378Z,17.00
2018-05-17T18:46:55.345Z,17.00
2018-05-17T18:49:22.097Z,17.00
2018-05-17T18:51:49.017Z,16.90
2018-05-17T18:54:15.759Z,16.70
2018-05-17T18:56:41.817Z,16.70
2018-05-17T18:59:07.822Z,16.50
2018-05-17T19:01:34.558Z,16.50
2018-05-17T19:04:00.543Z,16.50
2018-05-17T19:06:26.541Z,16.30
2018-05-17T19:08:52.550Z,16.20
2018-05-17T19:11:19.606Z,16.00
2018-05-17T19:13:46.877Z,15.90
2018-05-17T19:16:12.880Z,15.90
2018-05-17T19:18:38.897Z,15.90
2018-05-17T19:21:06.341Z,16.00
2018-05-17T19:23:33.041Z,15.90
2018-05-17T19:25:59.028Z,15.90
2018-05-17T19:28:25.182Z,15.80
2018-05-17T19:30:51.185Z,16.00
2018-05-17T19:33:17.189Z,15.80
2018-05-17T19:35:43.193Z,15.70
2018-05-17T19:38:09.949Z,15.70
2018-05-17T19:40:35.953Z,15.70
2018-05-17T19:43:01.922Z,15.60
2018-05-17T19:45:27.979Z,15.60
2018-05-17T19:47:53.896Z,15.50
2018-05-17T19:50:19.898Z,15.20
2018-05-17T19:52:45.885Z,15.30
2018-05-17T19:55:12.026Z,15.40
2018-05-17T19:57:38.005Z,15.40
2018-05-17T20:00:04.822Z,15.30
2018-05-17T20:02:30.806Z,15.40
2018-05-17T20:04:56.968Z,15.30
2018-05-17T20:07:22.894Z,15.30
2018-05-17T20:09:48.916Z,15.20
2018-05-17T20:12:15.411Z,15.10
2018-05-17T20:14:41.445Z,15.30
2018-05-17T20:17:07.578Z,15.10
2018-05-17T20:19:35.385Z,14.90
2018-05-17T20:22:02.838Z,15.00
2018-05-17T20:24:28.969Z,15.00
2018-05-17T20:26:54.997Z,15.00
2018-05-17T20:29:21.755Z,14.90
2018-05-17T20:31:48.562Z,15.00
2018-05-17T20:34:14.545Z,14.90
2018-05-17T20:36:40.609Z,15.00
2018-05-17T20:39:07.305Z,14.70
2018-05-17T20:41:33.310Z,14.70
2018-05-17T20:43:59.309Z,14.80
2018-05-17T20:46:25.310Z,14.70
2018-05-17T20:48:51.306Z,14.70
2018-05-17T20:51:17.296Z,14.70
2018-05-17T20:53:44.053Z,14.70
2018-05-17T20:56:10.044Z,14.60
2018-05-17T20:58:36.793Z,14.60
2018-05-17T21:01:03.524Z,14.50
2018-05-17T21:03:29.541Z,14.50
2018-05-17T21:05:55.544Z,14.40
2018-05-17T21:08:21.525Z,14.00
2018-05-17T21:10:47.546Z,14.40
2018-05-17T21:13:13.561Z,14.30
2018-05-17T21:15:39.562Z,14.30
2018-05-17T21:18:06.294Z,14.30
2018-05-17T21:20:32.306Z,14.30
2018-05-17T21:22:58.287Z,14.10
2018-05-17T21:25:24.283Z,14.10
2018-05-17T21:27:50.253Z,14.10
2018-05-17T21:30:16.249Z,14.20
2018-05-17T21:32:42.957Z,14.20
2018-05-17T21:35:08.945Z,14.20
2018-05-17T21:37:34.962Z,14.10
2018-05-17T21:40:00.962Z,14.00
2018-05-17T21:42:26.954Z,14.00
2018-05-17T21:44:52.968Z,14.00
2018-05-17T21:47:18.955Z,14.10
2018-05-17T21:49:45.761Z,13.90
2018-05-17T21:52:11.749Z,13.90
2018-05-17T21:54:37.794Z,13.90
2018-05-17T21:57:04.513Z,13.90
2018-05-17T21:59:30.521Z,13.80
2018-05-17T22:01:56.546Z,13.50
2018-05-17T22:04:22.546Z,13.80
2018-05-17T22:06:48.542Z,13.80
2018-05-17T22:09:14.541Z,13.70
2018-05-17T22:11:41.321Z,13.80
2018-05-17T22:14:07.346Z,13.70
2018-05-17T22:16:33.345Z,13.80
2018-05-17T22:19:00.070Z,13.70
2018-05-17T22:21:26.821Z,13.80
2018-05-17T22:23:53.550Z,13.80
2018-05-17T22:26:20.306Z,13.60
2018-05-17T22:28:47.032Z,13.50
2018-05-17T22:31:13.786Z,13.40
2018-05-17T22:33:40.701Z,13.60
2018-05-17T22:36:06.710Z,13.60
2018-05-17T22:38:32.682Z,13.60
2018-05-17T22:40:58.695Z,13.30
2018-05-17T22:43:24.664Z,13.40
2018-05-17T22:45:50.681Z,13.30
2018-05-17T22:48:16.649Z,13.10
2018-05-17T22:50:43.404Z,13.30
2018-05-17T22:53:10.129Z,13.30
2018-05-17T22:55:36.128Z,13.30
2018-05-17T22:58:08.257Z,13.30
2018-05-17T23:00:34.269Z,13.20
2018-05-17T23:03:00.262Z,13.20
2018-05-17T23:05:27.005Z,13.00
2018-05-17T23:07:52.982Z,12.90
2018-05-17T23:10:19.002Z,13.00
2018-05-17T23:12:45.010Z,13.00
2018-05-17T23:15:11.017Z,13.00
2018-05-17T23:17:37.756Z,12.90
2018-05-17T23:20:03.761Z,12.80
2018-05-17T23:22:34.594Z,12.90
2018-05-17T23:25:00.762Z,12.90
2018-05-17T23:27:26.745Z,13.00
2018-05-17T23:29:52.729Z,12.70
2018-05-17T23:32:18.774Z,12.80
2018-05-17T23:34:44.789Z,12.90
2018-05-17T23:37:17.053Z,12.90
2018-05-17T23:39:43.070Z,12.90
2018-05-17T23:42:09.069Z,12.60
2018-05-17T23:44:35.275Z,13.00
2018-05-17T23:47:02.046Z,12.70
2018-05-17T23:49:28.038Z,12.70
2018-05-17T23:51:54.765Z,12.80
2018-05-17T23:54:21.493Z,12.80
2018-05-17T23:56:47.507Z,12.80
2018-05-17T23:59:13.501Z,12.70
